sensor_id;sensor_type;location;lat;lon;timestamp;P1;durP1;ratioP1;P2;durP2;ratioP2
44696;SDS011;57264;47.480;19.354;2023-04-06T00:01:31;10.83;;;5.90;;
44696;SDS011;57264;47.480;19.354;2023-04-06T00:03:56;12.63;;;6.20;;
44696;SDS011;57264;47.480;19.354;2023-04-06T00:06:22;9.30;;;5.60;;
44696;SDS011;57264;47.480;19.354;2023-04-06T00:08:48;9.40;;;6.20;;
44696;SDS011;57264;47.480;19.354;2023-04-06T00:11:13;9.37;;;5.97;;
44696;SDS011;57264;47.480;19.354;2023-04-06T00:13:39;10.23;;;6.33;;
44696;SDS011;57264;47.480;19.354;2023-04-06T00:16:04;12.23;;;6.53;;
44696;SDS011;57264;47.480;19.354;2023-04-06T00:18:31;9.55;;;5.28;;
44696;SDS011;57264;47.480;19.354;2023-04-06T00:20:56;9.63;;;5.53;;
44696;SDS011;57264;47.480;19.354;2023-04-06T00:23:22;10.07;;;5.97;;
44696;SDS011;57264;47.480;19.354;2023-04-06T00:25:48;8.93;;;6.23;;
44696;SDS011;57264;47.480;19.354;2023-04-06T00:28:13;9.73;;;6.17;;
44696;SDS011;57264;47.480;19.354;2023-04-06T00:30:39;9.90;;;6.07;;
44696;SDS011;57264;47.480;19.354;2023-04-06T00:33:05;10.48;;;6.50;;
44696;SDS011;57264;47.480;19.354;2023-04-06T00:35:31;11.53;;;5.93;;
44696;SDS011;57264;47.480;19.354;2023-04-06T00:37:57;8.10;;;5.30;;
44696;SDS011;57264;47.480;19.354;2023-04-06T00:40:22;11.90;;;5.77;;
44696;SDS011;57264;47.480;19.354;2023-04-06T00:42:48;9.83;;;6.30;;
44696;SDS011;57264;47.480;19.354;2023-04-06T00:45:14;11.45;;;6.00;;
44696;SDS011;57264;47.480;19.354;2023-04-06T00:47:40;9.03;;;5.70;;
44696;SDS011;57264;47.480;19.354;2023-04-06T00:50:05;11.00;;;5.80;;
44696;SDS011;57264;47.480;19.354;2023-04-06T00:52:32;10.27;;;6.30;;
44696;SDS011;57264;47.480;19.354;2023-04-06T00:54:58;10.23;;;6.18;;
44696;SDS011;57264;47.480;19.354;2023-04-06T00:57:24;11.47;;;6.23;;
44696;SDS011;57264;47.480;19.354;2023-04-06T00:59:49;10.37;;;5.90;;
44696;SDS011;57264;47.480;19.354;2023-04-06T01:04:51;9.88;;;5.75;;
44696;SDS011;57264;47.480;19.354;2023-04-06T01:07:19;10.45;;;5.70;;
44696;SDS011;57264;47.480;19.354;2023-04-06T01:09:44;10.03;;;5.53;;
44696;SDS011;57264;47.480;19.354;2023-04-06T01:12:10;9.80;;;5.03;;
44696;SDS011;57264;47.480;19.354;2023-04-06T01:14:35;9.20;;;5.20;;
44696;SDS011;57264;47.480;19.354;2023-04-06T01:17:01;10.00;;;5.77;;
44696;SDS011;57264;47.480;19.354;2023-04-06T01:19:27;7.97;;;5.10;;
44696;SDS011;57264;47.480;19.354;2023-04-06T01:21:53;8.20;;;5.65;;
44696;SDS011;57264;47.480;19.354;2023-04-06T01:24:19;10.38;;;5.10;;
44696;SDS011;57264;47.480;19.354;2023-04-06T01:26:45;8.27;;;5.10;;
44696;SDS011;57264;47.480;19.354;2023-04-06T01:29:11;9.27;;;5.53;;
44696;SDS011;57264;47.480;19.354;2023-04-06T01:31:37;10.27;;;5.23;;
44696;SDS011;57264;47.480;19.354;2023-04-06T01:34:03;7.30;;;4.70;;
44696;SDS011;57264;47.480;19.354;2023-04-06T01:36:29;7.75;;;5.57;;
44696;SDS011;57264;47.480;19.354;2023-04-06T01:38:56;10.88;;;6.07;;
44696;SDS011;57264;47.480;19.354;2023-04-06T01:41:21;10.67;;;5.53;;
44696;SDS011;57264;47.480;19.354;2023-04-06T01:43:47;9.33;;;5.43;;
44696;SDS011;57264;47.480;19.354;2023-04-06T01:46:14;8.90;;;5.70;;
44696;SDS011;57264;47.480;19.354;2023-04-06T01:48:40;10.13;;;5.55;;
44696;SDS011;57264;47.480;19.354;2023-04-06T01:51:06;10.27;;;6.03;;
44696;SDS011;57264;47.480;19.354;2023-04-06T01:53:32;9.37;;;5.77;;
44696;SDS011;57264;47.480;19.354;2023-04-06T01:55:57;8.63;;;6.10;;
44696;SDS011;57264;47.480;19.354;2023-04-06T01:58:23;8.10;;;5.37;;
44696;SDS011;57264;47.480;19.354;2023-04-06T02:00:48;8.00;;;5.53;;
44696;SDS011;57264;47.480;19.354;2023-04-06T02:03:14;11.03;;;6.37;;
44696;SDS011;57264;47.480;19.354;2023-04-06T02:05:40;10.57;;;5.17;;
44696;SDS011;57264;47.480;19.354;2023-04-06T02:08:06;7.13;;;5.35;;
44696;SDS011;57264;47.480;19.354;2023-04-06T02:10:32;9.00;;;5.38;;
44696;SDS011;57264;47.480;19.354;2023-04-06T02:12:58;8.32;;;5.15;;
44696;SDS011;57264;47.480;19.354;2023-04-06T02:15:24;8.93;;;5.37;;
44696;SDS011;57264;47.480;19.354;2023-04-06T02:17:50;8.80;;;5.82;;
44696;SDS011;57264;47.480;19.354;2023-04-06T02:20:16;9.13;;;6.10;;
44696;SDS011;57264;47.480;19.354;2023-04-06T02:22:42;9.77;;;5.47;;
44696;SDS011;57264;47.480;19.354;2023-04-06T02:25:07;8.23;;;5.43;;
44696;SDS011;57264;47.480;19.354;2023-04-06T02:27:33;12.13;;;5.53;;
44696;SDS011;57264;47.480;19.354;2023-04-06T02:30:00;9.17;;;6.20;;
44696;SDS011;57264;47.480;19.354;2023-04-06T02:32:25;9.40;;;6.03;;
44696;SDS011;57264;47.480;19.354;2023-04-06T02:34:51;10.77;;;5.23;;
44696;SDS011;57264;47.480;19.354;2023-04-06T02:37:16;8.83;;;5.80;;
44696;SDS011;57264;47.480;19.354;2023-04-06T02:39:42;7.23;;;5.57;;
44696;SDS011;57264;47.480;19.354;2023-04-06T02:42:07;8.87;;;6.07;;
44696;SDS011;57264;47.480;19.354;2023-04-06T02:44:33;10.48;;;6.63;;
44696;SDS011;57264;47.480;19.354;2023-04-06T02:46:59;14.98;;;6.65;;
44696;SDS011;57264;47.480;19.354;2023-04-06T02:49:25;11.90;;;6.17;;
44696;SDS011;57264;47.480;19.354;2023-04-06T02:51:51;10.17;;;6.17;;
44696;SDS011;57264;47.480;19.354;2023-04-06T02:54:16;10.63;;;6.63;;
44696;SDS011;57264;47.480;19.354;2023-04-06T02:56:42;12.10;;;6.90;;
44696;SDS011;57264;47.480;19.354;2023-04-06T02:59:08;10.50;;;6.43;;
44696;SDS011;57264;47.480;19.354;2023-04-06T03:01:34;11.67;;;6.10;;
44696;SDS011;57264;47.480;19.354;2023-04-06T03:03:59;11.90;;;6.47;;
44696;SDS011;57264;47.480;19.354;2023-04-06T03:06:25;10.87;;;7.30;;
44696;SDS011;57264;47.480;19.354;2023-04-06T03:08:51;9.73;;;6.63;;
44696;SDS011;57264;47.480;19.354;2023-04-06T03:11:17;12.57;;;6.70;;
44696;SDS011;57264;47.480;19.354;2023-04-06T03:13:42;10.73;;;7.30;;
44696;SDS011;57264;47.480;19.354;2023-04-06T03:16:08;11.47;;;6.73;;
44696;SDS011;57264;47.480;19.354;2023-04-06T03:18:33;12.30;;;7.40;;
44696;SDS011;57264;47.480;19.354;2023-04-06T03:20:59;13.03;;;6.77;;
44696;SDS011;57264;47.480;19.354;2023-04-06T03:23:26;11.82;;;6.80;;
44696;SDS011;57264;47.480;19.354;2023-04-06T03:25:51;12.67;;;6.80;;
44696;SDS011;57264;47.480;19.354;2023-04-06T03:28:17;14.37;;;7.73;;
44696;SDS011;57264;47.480;19.354;2023-04-06T03:30:42;11.23;;;7.40;;
44696;SDS011;57264;47.480;19.354;2023-04-06T03:33:08;12.03;;;7.53;;
44696;SDS011;57264;47.480;19.354;2023-04-06T03:35:33;12.47;;;7.93;;
44696;SDS011;57264;47.480;19.354;2023-04-06T03:37:59;16.63;;;8.43;;
44696;SDS011;57264;47.480;19.354;2023-04-06T03:40:24;14.67;;;8.10;;
44696;SDS011;57264;47.480;19.354;2023-04-06T03:42:50;13.13;;;7.97;;
44696;SDS011;57264;47.480;19.354;2023-04-06T03:45:16;11.80;;;7.53;;
44696;SDS011;57264;47.480;19.354;2023-04-06T03:47:41;14.57;;;8.43;;
44696;SDS011;57264;47.480;19.354;2023-04-06T03:50:07;15.03;;;9.07;;
44696;SDS011;57264;47.480;19.354;2023-04-06T03:52:34;16.42;;;9.52;;
44696;SDS011;57264;47.480;19.354;2023-04-06T03:55:00;17.02;;;10.73;;
44696;SDS011;57264;47.480;19.354;2023-04-06T03:57:26;20.73;;;10.43;;
44696;SDS011;57264;47.480;19.354;2023-04-06T03:59:51;21.73;;;11.03;;
44696;SDS011;57264;47.480;19.354;2023-04-06T04:02:17;17.67;;;9.23;;
44696;SDS011;57264;47.480;19.354;2023-04-06T04:04:42;16.67;;;8.57;;
44696;SDS011;57264;47.480;19.354;2023-04-06T04:07:08;11.70;;;7.90;;
44696;SDS011;57264;47.480;19.354;2023-04-06T04:09:33;11.83;;;7.90;;
44696;SDS011;57264;47.480;19.354;2023-04-06T04:11:59;14.57;;;7.23;;
44696;SDS011;57264;47.480;19.354;2023-04-06T04:14:25;16.10;;;7.77;;
44696;SDS011;57264;47.480;19.354;2023-04-06T04:16:50;20.83;;;9.33;;
44696;SDS011;57264;47.480;19.354;2023-04-06T04:19:16;16.53;;;9.40;;
44696;SDS011;57264;47.480;19.354;2023-04-06T04:21:42;15.73;;;9.33;;
44696;SDS011;57264;47.480;19.354;2023-04-06T04:24:10;17.92;;;8.38;;
44696;SDS011;57264;47.480;19.354;2023-04-06T04:26:35;18.47;;;9.70;;
44696;SDS011;57264;47.480;19.354;2023-04-06T04:29:01;14.53;;;9.10;;
44696;SDS011;57264;47.480;19.354;2023-04-06T04:31:26;21.57;;;9.43;;
44696;SDS011;57264;47.480;19.354;2023-04-06T04:33:52;16.10;;;8.93;;
44696;SDS011;57264;47.480;19.354;2023-04-06T04:36:18;18.00;;;9.63;;
44696;SDS011;57264;47.480;19.354;2023-04-06T04:38:43;31.03;;;13.17;;
44696;SDS011;57264;47.480;19.354;2023-04-06T04:41:09;18.57;;;9.00;;
44696;SDS011;57264;47.480;19.354;2023-04-06T04:43:34;21.27;;;9.20;;
44696;SDS011;57264;47.480;19.354;2023-04-06T04:46:00;15.07;;;9.00;;
44696;SDS011;57264;47.480;19.354;2023-04-06T04:48:25;13.73;;;7.87;;
44696;SDS011;57264;47.480;19.354;2023-04-06T04:50:51;13.93;;;7.40;;
44696;SDS011;57264;47.480;19.354;2023-04-06T04:53:17;11.77;;;7.57;;
44696;SDS011;57264;47.480;19.354;2023-04-06T04:55:42;17.20;;;8.53;;
44696;SDS011;57264;47.480;19.354;2023-04-06T04:58:08;14.20;;;8.00;;
44696;SDS011;57264;47.480;19.354;2023-04-06T05:00:34;16.33;;;9.32;;
44696;SDS011;57264;47.480;19.354;2023-04-06T05:03:00;14.60;;;10.23;;
44696;SDS011;57264;47.480;19.354;2023-04-06T05:05:25;19.83;;;10.77;;
44696;SDS011;57264;47.480;19.354;2023-04-06T05:07:51;18.80;;;11.43;;
44696;SDS011;57264;47.480;19.354;2023-04-06T05:10:17;17.63;;;9.95;;
44696;SDS011;57264;47.480;19.354;2023-04-06T05:12:43;16.73;;;9.73;;
44696;SDS011;57264;47.480;19.354;2023-04-06T05:15:08;15.93;;;8.37;;
44696;SDS011;57264;47.480;19.354;2023-04-06T05:17:34;12.35;;;8.20;;
44696;SDS011;57264;47.480;19.354;2023-04-06T05:20:00;13.17;;;8.53;;
44696;SDS011;57264;47.480;19.354;2023-04-06T05:22:26;19.60;;;9.53;;
44696;SDS011;57264;47.480;19.354;2023-04-06T05:24:51;16.57;;;8.43;;
44696;SDS011;57264;47.480;19.354;2023-04-06T05:27:17;13.63;;;8.70;;
44696;SDS011;57264;47.480;19.354;2023-04-06T05:29:42;13.83;;;7.80;;
44696;SDS011;57264;47.480;19.354;2023-04-06T05:32:08;14.47;;;8.83;;
44696;SDS011;57264;47.480;19.354;2023-04-06T05:34:33;18.03;;;9.30;;
44696;SDS011;57264;47.480;19.354;2023-04-06T05:36:59;12.30;;;9.43;;
44696;SDS011;57264;47.480;19.354;2023-04-06T05:39:24;14.53;;;8.83;;
44696;SDS011;57264;47.480;19.354;2023-04-06T05:41:50;14.37;;;7.77;;
44696;SDS011;57264;47.480;19.354;2023-04-06T05:44:16;15.77;;;8.37;;
44696;SDS011;57264;47.480;19.354;2023-04-06T05:46:41;13.60;;;8.93;;
44696;SDS011;57264;47.480;19.354;2023-04-06T05:49:07;15.00;;;9.00;;
44696;SDS011;57264;47.480;19.354;2023-04-06T05:51:33;18.37;;;8.83;;
44696;SDS011;57264;47.480;19.354;2023-04-06T05:53:58;13.33;;;8.53;;
44696;SDS011;57264;47.480;19.354;2023-04-06T05:56:24;12.93;;;8.23;;
44696;SDS011;57264;47.480;19.354;2023-04-06T05:58:50;11.95;;;7.57;;
44696;SDS011;57264;47.480;19.354;2023-04-06T06:01:16;21.13;;;7.97;;
44696;SDS011;57264;47.480;19.354;2023-04-06T06:03:41;12.20;;;7.77;;
44696;SDS011;57264;47.480;19.354;2023-04-06T06:06:10;12.80;;;8.53;;
44696;SDS011;57264;47.480;19.354;2023-04-06T06:08:35;14.90;;;7.40;;
44696;SDS011;57264;47.480;19.354;2023-04-06T06:11:01;15.50;;;7.67;;
44696;SDS011;57264;47.480;19.354;2023-04-06T06:13:27;16.80;;;8.27;;
44696;SDS011;57264;47.480;19.354;2023-04-06T06:15:52;16.33;;;8.57;;
44696;SDS011;57264;47.480;19.354;2023-04-06T06:18:18;11.40;;;7.87;;
44696;SDS011;57264;47.480;19.354;2023-04-06T06:20:44;12.00;;;8.37;;
44696;SDS011;57264;47.480;19.354;2023-04-06T06:23:10;13.60;;;9.07;;
44696;SDS011;57264;47.480;19.354;2023-04-06T06:25:35;16.00;;;9.37;;
44696;SDS011;57264;47.480;19.354;2023-04-06T06:28:01;21.73;;;10.60;;
44696;SDS011;57264;47.480;19.354;2023-04-06T06:30:26;27.43;;;13.43;;
44696;SDS011;57264;47.480;19.354;2023-04-06T06:32:52;22.27;;;12.73;;
44696;SDS011;57264;47.480;19.354;2023-04-06T06:35:19;22.80;;;12.88;;
44696;SDS011;57264;47.480;19.354;2023-04-06T06:37:44;17.57;;;10.70;;
44696;SDS011;57264;47.480;19.354;2023-04-06T06:40:10;20.73;;;11.47;;
44696;SDS011;57264;47.480;19.354;2023-04-06T06:42:38;16.50;;;10.73;;
44696;SDS011;57264;47.480;19.354;2023-04-06T06:45:04;20.67;;;9.75;;
44696;SDS011;57264;47.480;19.354;2023-04-06T06:47:30;18.90;;;10.80;;
44696;SDS011;57264;47.480;19.354;2023-04-06T06:49:56;18.97;;;10.33;;
44696;SDS011;57264;47.480;19.354;2023-04-06T06:52:22;18.63;;;9.83;;
44696;SDS011;57264;47.480;19.354;2023-04-06T06:54:49;15.80;;;9.65;;
44696;SDS011;57264;47.480;19.354;2023-04-06T06:57:14;21.60;;;9.90;;
44696;SDS011;57264;47.480;19.354;2023-04-06T06:59:40;17.90;;;10.60;;
44696;SDS011;57264;47.480;19.354;2023-04-06T07:02:05;15.27;;;10.20;;
44696;SDS011;57264;47.480;19.354;2023-04-06T07:04:34;22.23;;;10.90;;
44696;SDS011;57264;47.480;19.354;2023-04-06T07:07:00;20.45;;;10.35;;
44696;SDS011;57264;47.480;19.354;2023-04-06T07:09:26;17.37;;;10.63;;
44696;SDS011;57264;47.480;19.354;2023-04-06T07:11:52;17.93;;;10.43;;
44696;SDS011;57264;47.480;19.354;2023-04-06T07:14:17;18.30;;;10.10;;
44696;SDS011;57264;47.480;19.354;2023-04-06T07:16:43;21.53;;;10.27;;
44696;SDS011;57264;47.480;19.354;2023-04-06T07:19:10;16.35;;;9.88;;
44696;SDS011;57264;47.480;19.354;2023-04-06T07:21:36;16.80;;;10.67;;
44696;SDS011;57264;47.480;19.354;2023-04-06T07:24:01;15.47;;;10.40;;
44696;SDS011;57264;47.480;19.354;2023-04-06T07:26:27;18.40;;;10.80;;
44696;SDS011;57264;47.480;19.354;2023-04-06T07:28:53;17.27;;;10.20;;
44696;SDS011;57264;47.480;19.354;2023-04-06T07:31:18;14.67;;;9.37;;
44696;SDS011;57264;47.480;19.354;2023-04-06T07:33:44;17.17;;;10.03;;
44696;SDS011;57264;47.480;19.354;2023-04-06T07:36:10;15.63;;;9.07;;
44696;SDS011;57264;47.480;19.354;2023-04-06T07:38:35;15.37;;;8.90;;
44696;SDS011;57264;47.480;19.354;2023-04-06T07:41:01;17.10;;;8.87;;
44696;SDS011;57264;47.480;19.354;2023-04-06T07:43:29;12.55;;;8.30;;
44696;SDS011;57264;47.480;19.354;2023-04-06T07:45:55;12.75;;;8.10;;
44696;SDS011;57264;47.480;19.354;2023-04-06T07:48:22;10.88;;;7.22;;
44696;SDS011;57264;47.480;19.354;2023-04-06T07:50:48;10.40;;;6.97;;
44696;SDS011;57264;47.480;19.354;2023-04-06T07:53:13;9.63;;;6.80;;
44696;SDS011;57264;47.480;19.354;2023-04-06T07:55:39;16.40;;;7.43;;
44696;SDS011;57264;47.480;19.354;2023-04-06T07:58:04;13.33;;;6.87;;
44696;SDS011;57264;47.480;19.354;2023-04-06T08:00:30;11.10;;;7.00;;
44696;SDS011;57264;47.480;19.354;2023-04-06T08:02:56;9.85;;;6.68;;
44696;SDS011;57264;47.480;19.354;2023-04-06T08:05:22;11.13;;;7.57;;
44696;SDS011;57264;47.480;19.354;2023-04-06T08:07:47;11.30;;;7.93;;
44696;SDS011;57264;47.480;19.354;2023-04-06T08:10:13;13.13;;;7.90;;
44696;SDS011;57264;47.480;19.354;2023-04-06T08:12:38;17.10;;;7.10;;
44696;SDS011;57264;47.480;19.354;2023-04-06T08:15:04;12.50;;;7.67;;
44696;SDS011;57264;47.480;19.354;2023-04-06T08:17:33;13.52;;;8.18;;
44696;SDS011;57264;47.480;19.354;2023-04-06T08:20:00;14.98;;;7.10;;
44696;SDS011;57264;47.480;19.354;2023-04-06T08:22:25;12.60;;;7.03;;
44696;SDS011;57264;47.480;19.354;2023-04-06T08:24:51;17.73;;;7.07;;
44696;SDS011;57264;47.480;19.354;2023-04-06T08:27:17;11.07;;;6.77;;
44696;SDS011;57264;47.480;19.354;2023-04-06T08:29:43;13.38;;;6.65;;
44696;SDS011;57264;47.480;19.354;2023-04-06T08:32:08;8.37;;;5.93;;
44696;SDS011;57264;47.480;19.354;2023-04-06T08:34:34;13.33;;;6.83;;
44696;SDS011;57264;47.480;19.354;2023-04-06T08:37:00;14.35;;;6.93;;
44696;SDS011;57264;47.480;19.354;2023-04-06T08:39:27;12.70;;;7.30;;
44696;SDS011;57264;47.480;19.354;2023-04-06T08:41:55;11.23;;;6.90;;
44696;SDS011;57264;47.480;19.354;2023-04-06T08:44:27;12.43;;;7.15;;
44696;SDS011;57264;47.480;19.354;2023-04-06T08:46:55;11.73;;;6.85;;
44696;SDS011;57264;47.480;19.354;2023-04-06T08:49:21;11.13;;;6.83;;
44696;SDS011;57264;47.480;19.354;2023-04-06T08:51:48;17.75;;;7.25;;
44696;SDS011;57264;47.480;19.354;2023-04-06T08:54:14;13.32;;;7.00;;
44696;SDS011;57264;47.480;19.354;2023-04-06T08:56:40;12.13;;;6.37;;
44696;SDS011;57264;47.480;19.354;2023-04-06T08:59:06;13.50;;;7.32;;
44696;SDS011;57264;47.480;19.354;2023-04-06T09:01:36;11.07;;;6.90;;
44696;SDS011;57264;47.480;19.354;2023-04-06T09:04:06;13.30;;;6.75;;
44696;SDS011;57264;47.480;19.354;2023-04-06T09:06:35;15.85;;;6.90;;
44696;SDS011;57264;47.480;19.354;2023-04-06T09:09:02;11.90;;;6.95;;
44696;SDS011;57264;47.480;19.354;2023-04-06T09:11:28;13.70;;;7.03;;
44696;SDS011;57264;47.480;19.354;2023-04-06T09:13:54;12.50;;;7.17;;
44696;SDS011;57264;47.480;19.354;2023-04-06T09:16:21;13.68;;;6.35;;
44696;SDS011;57264;47.480;19.354;2023-04-06T09:18:51;9.50;;;5.90;;
44696;SDS011;57264;47.480;19.354;2023-04-06T09:21:17;11.53;;;6.87;;
44696;SDS011;57264;47.480;19.354;2023-04-06T09:23:46;10.25;;;6.53;;
44696;SDS011;57264;47.480;19.354;2023-04-06T09:26:14;10.23;;;6.13;;
44696;SDS011;57264;47.480;19.354;2023-04-06T09:28:49;12.07;;;6.32;;
44696;SDS011;57264;47.480;19.354;2023-04-06T09:31:20;10.30;;;6.38;;
44696;SDS011;57264;47.480;19.354;2023-04-06T09:33:48;12.70;;;6.57;;
44696;SDS011;57264;47.480;19.354;2023-04-06T09:36:13;11.83;;;7.53;;
44696;SDS011;57264;47.480;19.354;2023-04-06T09:41:26;11.15;;;6.57;;
44696;SDS011;57264;47.480;19.354;2023-04-06T09:44:06;16.48;;;6.35;;
44696;SDS011;57264;47.480;19.354;2023-04-06T09:46:45;10.32;;;6.32;;
44696;SDS011;57264;47.480;19.354;2023-04-06T09:49:12;10.48;;;6.10;;
44696;SDS011;57264;47.480;19.354;2023-04-06T09:51:45;9.20;;;5.78;;
44696;SDS011;57264;47.480;19.354;2023-04-06T09:54:16;10.75;;;5.55;;
44696;SDS011;57264;47.480;19.354;2023-04-06T09:56:46;10.20;;;5.80;;
44696;SDS011;57264;47.480;19.354;2023-04-06T10:02:08;10.60;;;6.72;;
44696;SDS011;57264;47.480;19.354;2023-04-06T10:04:58;7.43;;;5.72;;
44696;SDS011;57264;47.480;19.354;2023-04-06T10:07:27;12.43;;;6.72;;
44696;SDS011;57264;47.480;19.354;2023-04-06T10:09:54;9.45;;;6.43;;
44696;SDS011;57264;47.480;19.354;2023-04-06T10:12:20;12.63;;;7.43;;
44696;SDS011;57264;47.480;19.354;2023-04-06T10:14:45;14.50;;;6.50;;
44696;SDS011;57264;47.480;19.354;2023-04-06T10:17:12;11.70;;;6.90;;
44696;SDS011;57264;47.480;19.354;2023-04-06T10:22:26;12.55;;;6.75;;
44696;SDS011;57264;47.480;19.354;2023-04-06T10:25:04;11.52;;;6.55;;
44696;SDS011;57264;47.480;19.354;2023-04-06T10:27:30;9.60;;;6.57;;
44696;SDS011;57264;47.480;19.354;2023-04-06T10:30:05;9.52;;;6.38;;
44696;SDS011;57264;47.480;19.354;2023-04-06T10:32:35;11.10;;;6.40;;
44696;SDS011;57264;47.480;19.354;2023-04-06T10:35:08;11.05;;;7.03;;
44696;SDS011;57264;47.480;19.354;2023-04-06T10:37:59;10.02;;;6.72;;
44696;SDS011;57264;47.480;19.354;2023-04-06T10:40:26;14.32;;;6.65;;
44696;SDS011;57264;47.480;19.354;2023-04-06T10:42:53;14.50;;;5.50;;
44696;SDS011;57264;47.480;19.354;2023-04-06T10:45:23;12.43;;;6.18;;
44696;SDS011;57264;47.480;19.354;2023-04-06T10:47:54;12.85;;;5.45;;
44696;SDS011;57264;47.480;19.354;2023-04-06T10:50:21;9.73;;;4.63;;
44696;SDS011;57264;47.480;19.354;2023-04-06T10:52:47;7.50;;;5.45;;
44696;SDS011;57264;47.480;19.354;2023-04-06T10:55:24;9.32;;;5.90;;
44696;SDS011;57264;47.480;19.354;2023-04-06T10:57:53;7.95;;;5.20;;
44696;SDS011;57264;47.480;19.354;2023-04-06T11:00:19;7.97;;;5.50;;
44696;SDS011;57264;47.480;19.354;2023-04-06T11:02:45;7.88;;;5.20;;
44696;SDS011;57264;47.480;19.354;2023-04-06T11:05:11;7.70;;;4.87;;
44696;SDS011;57264;47.480;19.354;2023-04-06T11:07:39;8.68;;;5.40;;
44696;SDS011;57264;47.480;19.354;2023-04-06T11:10:05;7.85;;;5.35;;
44696;SDS011;57264;47.480;19.354;2023-04-06T11:12:32;9.45;;;5.60;;
44696;SDS011;57264;47.480;19.354;2023-04-06T11:14:58;9.87;;;6.03;;
44696;SDS011;57264;47.480;19.354;2023-04-06T11:17:35;12.10;;;5.68;;
44696;SDS011;57264;47.480;19.354;2023-04-06T11:20:02;13.75;;;6.32;;
44696;SDS011;57264;47.480;19.354;2023-04-06T11:22:30;8.80;;;5.63;;
44696;SDS011;57264;47.480;19.354;2023-04-06T11:25:08;13.07;;;5.80;;
44696;SDS011;57264;47.480;19.354;2023-04-06T11:27:34;8.82;;;5.90;;
44696;SDS011;57264;47.480;19.354;2023-04-06T11:30:00;9.50;;;5.65;;
44696;SDS011;57264;47.480;19.354;2023-04-06T11:32:26;9.23;;;5.40;;
44696;SDS011;57264;47.480;19.354;2023-04-06T11:34:52;8.73;;;5.93;;
44696;SDS011;57264;47.480;19.354;2023-04-06T11:37:18;12.10;;;6.40;;
44696;SDS011;57264;47.480;19.354;2023-04-06T11:39:48;8.00;;;5.67;;
44696;SDS011;57264;47.480;19.354;2023-04-06T11:42:26;8.25;;;5.43;;
44696;SDS011;57264;47.480;19.354;2023-04-06T11:44:56;8.18;;;5.43;;
44696;SDS011;57264;47.480;19.354;2023-04-06T11:47:29;9.68;;;5.80;;
44696;SDS011;57264;47.480;19.354;2023-04-06T11:49:56;10.63;;;6.60;;
44696;SDS011;57264;47.480;19.354;2023-04-06T11:52:31;10.63;;;5.88;;
44696;SDS011;57264;47.480;19.354;2023-04-06T11:54:56;13.17;;;5.50;;
44696;SDS011;57264;47.480;19.354;2023-04-06T11:57:22;8.37;;;5.50;;
44696;SDS011;57264;47.480;19.354;2023-04-06T11:59:51;8.50;;;5.43;;
44696;SDS011;57264;47.480;19.354;2023-04-06T12:02:17;10.50;;;5.83;;
44696;SDS011;57264;47.480;19.354;2023-04-06T12:04:43;7.23;;;4.47;;
44696;SDS011;57264;47.480;19.354;2023-04-06T12:07:09;5.57;;;4.20;;
44696;SDS011;57264;47.480;19.354;2023-04-06T12:09:34;5.90;;;4.17;;
44696;SDS011;57264;47.480;19.354;2023-04-06T12:12:01;8.52;;;5.43;;
44696;SDS011;57264;47.480;19.354;2023-04-06T12:14:27;6.87;;;5.00;;
44696;SDS011;57264;47.480;19.354;2023-04-06T12:16:52;6.23;;;5.00;;
44696;SDS011;57264;47.480;19.354;2023-04-06T12:19:18;11.70;;;5.30;;
44696;SDS011;57264;47.480;19.354;2023-04-06T12:21:44;11.70;;;5.60;;
44696;SDS011;57264;47.480;19.354;2023-04-06T12:24:09;7.53;;;5.10;;
44696;SDS011;57264;47.480;19.354;2023-04-06T12:26:35;9.17;;;5.57;;
44696;SDS011;57264;47.480;19.354;2023-04-06T12:29:02;9.50;;;5.22;;
44696;SDS011;57264;47.480;19.354;2023-04-06T12:31:37;9.40;;;4.82;;
44696;SDS011;57264;47.480;19.354;2023-04-06T12:34:10;7.63;;;5.22;;
44696;SDS011;57264;47.480;19.354;2023-04-06T12:36:36;15.50;;;6.53;;
44696;SDS011;57264;47.480;19.354;2023-04-06T12:39:02;13.65;;;5.07;;
44696;SDS011;57264;47.480;19.354;2023-04-06T12:41:28;9.40;;;4.77;;
44696;SDS011;57264;47.480;19.354;2023-04-06T12:43:54;17.05;;;5.40;;
44696;SDS011;57264;47.480;19.354;2023-04-06T12:46:20;8.15;;;4.82;;
44696;SDS011;57264;47.480;19.354;2023-04-06T12:48:46;6.87;;;4.10;;
44696;SDS011;57264;47.480;19.354;2023-04-06T12:51:12;7.85;;;4.32;;
44696;SDS011;57264;47.480;19.354;2023-04-06T12:53:38;9.47;;;4.77;;
44696;SDS011;57264;47.480;19.354;2023-04-06T12:56:10;10.87;;;4.70;;
44696;SDS011;57264;47.480;19.354;2023-04-06T12:58:41;12.20;;;5.00;;
44696;SDS011;57264;47.480;19.354;2023-04-06T13:01:07;10.20;;;4.80;;
44696;SDS011;57264;47.480;19.354;2023-04-06T13:03:33;17.07;;;7.90;;
44696;SDS011;57264;47.480;19.354;2023-04-06T13:05:59;10.03;;;5.33;;
44696;SDS011;57264;47.480;19.354;2023-04-06T13:08:25;13.50;;;5.72;;
44696;SDS011;57264;47.480;19.354;2023-04-06T13:10:52;11.35;;;5.32;;
44696;SDS011;57264;47.480;19.354;2023-04-06T13:13:25;11.88;;;4.72;;
44696;SDS011;57264;47.480;19.354;2023-04-06T13:15:53;14.23;;;4.95;;
44696;SDS011;57264;47.480;19.354;2023-04-06T13:18:21;7.78;;;5.07;;
44696;SDS011;57264;47.480;19.354;2023-04-06T13:20:48;6.82;;;5.07;;
44696;SDS011;57264;47.480;19.354;2023-04-06T13:23:14;12.38;;;4.68;;
44696;SDS011;57264;47.480;19.354;2023-04-06T13:25:40;9.27;;;5.20;;
44696;SDS011;57264;47.480;19.354;2023-04-06T13:28:06;6.85;;;4.88;;
44696;SDS011;57264;47.480;19.354;2023-04-06T13:30:31;9.85;;;5.57;;
44696;SDS011;57264;47.480;19.354;2023-04-06T13:32:57;11.00;;;5.90;;
44696;SDS011;57264;47.480;19.354;2023-04-06T13:35:23;10.33;;;5.60;;
44696;SDS011;57264;47.480;19.354;2023-04-06T13:37:48;9.77;;;5.77;;
44696;SDS011;57264;47.480;19.354;2023-04-06T13:40:14;10.87;;;5.70;;
44696;SDS011;57264;47.480;19.354;2023-04-06T13:42:40;11.53;;;5.43;;
44696;SDS011;57264;47.480;19.354;2023-04-06T13:45:06;10.38;;;5.32;;
44696;SDS011;57264;47.480;19.354;2023-04-06T13:47:32;7.25;;;4.93;;
44696;SDS011;57264;47.480;19.354;2023-04-06T13:49:59;10.97;;;5.67;;
44696;SDS011;57264;47.480;19.354;2023-04-06T13:52:25;8.18;;;5.30;;
44696;SDS011;57264;47.480;19.354;2023-04-06T13:54:52;8.47;;;6.00;;
44696;SDS011;57264;47.480;19.354;2023-04-06T13:57:18;8.55;;;5.60;;
44696;SDS011;57264;47.480;19.354;2023-04-06T13:59:43;11.63;;;6.13;;
44696;SDS011;57264;47.480;19.354;2023-04-06T14:02:09;9.40;;;5.40;;
44696;SDS011;57264;47.480;19.354;2023-04-06T14:04:36;8.43;;;5.70;;
44696;SDS011;57264;47.480;19.354;2023-04-06T14:07:02;8.95;;;5.72;;
44696;SDS011;57264;47.480;19.354;2023-04-06T14:09:28;8.55;;;5.18;;
44696;SDS011;57264;47.480;19.354;2023-04-06T14:11:55;8.48;;;5.13;;
44696;SDS011;57264;47.480;19.354;2023-04-06T14:14:21;12.27;;;5.65;;
44696;SDS011;57264;47.480;19.354;2023-04-06T14:16:47;9.88;;;5.65;;
44696;SDS011;57264;47.480;19.354;2023-04-06T14:19:14;7.83;;;5.67;;
44696;SDS011;57264;47.480;19.354;2023-04-06T14:21:42;8.65;;;5.47;;
44696;SDS011;57264;47.480;19.354;2023-04-06T14:24:09;10.15;;;5.68;;
44696;SDS011;57264;47.480;19.354;2023-04-06T14:26:35;11.10;;;6.25;;
44696;SDS011;57264;47.480;19.354;2023-04-06T14:29:02;9.10;;;5.85;;
44696;SDS011;57264;47.480;19.354;2023-04-06T14:31:29;9.07;;;5.90;;